• Join FlightAware (Why Join?)
  • Login
  • US Flag 
04:51AM EDT


 

Airport Tracker/Info


-or-


 

Live Flight TrackerFlight Track Log ✈ UPS37 ✈ 21-Apr-2013 ✈ YSSY / SYD - ZGSZ / SZX

Flight Track Log - Related Links

Times and Time Zones

All times are in EDT time to prevent confusion due to time zone crossing. See the UPS37 flight status page for this flight to view local times or setup timezone preferences in your user account.

Time Position Orientation Groundspeed Altitude Reporting Facility
EDT Latitude Longitude Course Direction KTS MPH feet Rate Location/Type
07:34AM -33.9460 151.1771 345° North 12,900  Level Aus ATC (Calculated)
07:34AM -33.9300 151.1720 350° North 146 168 1,100 -19,200 Descending FlightAware
07:34AM -33.9200 151.1700 351° North 147 169 1,700 2,160 Climbing FlightAware
07:35AM -33.9090 151.1650 339° North 161 185 2,200 2,100 Climbing FlightAware
07:35AM -33.8930 151.1460 315° West 179 206 3,300 1,620 Climbing FlightAware
07:36AM -33.8760 151.1260 316° Northwest 231 266 3,700 1,620 Climbing FlightAware
07:36AM -33.8520 151.0970 315° West 256 295 4,800 2,460 Climbing FlightAware
07:37AM -33.8270 151.0670 315° West 268 308 6,000 3,360 Climbing FlightAware
07:37AM -33.8020 151.0350 313° West 265 305 7,900 3,180 Climbing FlightAware
07:38AM -33.7810 151.0070 312° West 272 313 9,200 2,160 Climbing FlightAware
07:38AM -33.7520 150.9720 315° West 302 348 10,300 1,980 Climbing FlightAware
07:39AM -33.7046 150.9129 315° West 331 381 11,500 1,860 Climbing Aus ATC (RADAR)
07:39AM -33.6980 150.9060 315° West 360 414 11,700 2,820 Climbing FlightAware
07:39AM -33.6490 150.8407 315° West 353 406 13,800 2,880 Climbing Aus ATC (RADAR)
07:40AM -33.6450 150.8360 315° West 374 430 13,900 2,580 Climbing FlightAware
07:40AM -33.5980 150.7810 316° Northwest 384 442 15,700 2,580 Climbing FlightAware
07:41AM -33.5307 150.7251 316° Northwest 387 445 17,200 2,040 Climbing Aus ATC (RADAR)
07:41AM -33.5290 150.7250 316° Northwest 407 468 17,400 3,060 Climbing FlightAware
07:42AM -33.4600 150.6710 327° Northwest 403 464 19,700 3,480 Climbing FlightAware
07:42AM -33.4251 150.6432 327° Northwest 396 456 20,800 1,920 Climbing Aus ATC (RADAR)
07:42AM -33.4030 150.6270 327° Northwest 413 475 21,000 1,440 Climbing FlightAware
07:43AM -33.3400 150.5770 326° Northwest 427 491 22,200 2,280 Climbing FlightAware
07:44AM -33.2607 150.5159 326° Northwest 423 487 24,000 2,160 Climbing Aus ATC (RADAR)
07:44AM -33.2590 150.5150 326° Northwest 432 497 24,000 1,980 Level FlightAware
07:44AM -33.2100 150.4767 326° Northwest 429 494 25,000 2,160 Climbing Aus ATC (RADAR)
07:44AM -33.1844 150.4569 327° Northwest 432 497 25,400 1,320 Climbing Aus ATC (RADAR)
07:45AM -33.1790 150.4530 327° Northwest 441 507 25,500 1,620 Climbing FlightAware
07:45AM -33.1276 150.4134 327° Northwest 430 495 26,300 1,500 Climbing Aus ATC (RADAR)
07:45AM -33.1130 150.4030 327° Northwest 450 518 26,500 1,200 Climbing FlightAware
07:46AM -33.0580 150.3610 327° Northwest 457 526 27,300 1,860 Climbing FlightAware
07:46AM -33.0295 150.3380 327° Northwest 443 510 27,800 2,820 Climbing Aus ATC (RADAR)
07:46AM -33.0026 150.3176 327° Northwest 444 511 28,300 2,040 Climbing Aus ATC (RADAR)
07:47AM -32.9530 150.2800 327° Northwest 458 527 29,300 2,220 Climbing FlightAware
07:47AM -32.8830 150.2270 328° Northwest 446 513 30,900 2,880 Climbing FlightAware
07:48AM -32.8527 150.2032 328° Northwest 430 495 32,000 2,100 Climbing Aus ATC (RADAR)
07:48AM -32.8060 150.1680 328° Northwest 439 505 32,500 1,620 Climbing FlightAware
07:49AM -32.7390 150.1170 327° Northwest 428 493 33,900 1,860 Climbing FlightAware
07:49AM -32.7008 150.0876 327° Northwest 416 479 34,400 1,020 Climbing Aus ATC (RADAR)
07:49AM -32.6810 150.0720 327° Northwest 431 496 34,500 840 Climbing FlightAware
07:50AM -32.6217 150.0277 327° Northwest 431 496 35,100 1,020 Climbing Aus ATC (RADAR)
07:50AM -32.6140 150.0220 327° Northwest 434 499 35,200 1,140 Climbing FlightAware
07:51AM -32.5580 149.9800 328° Northwest 432 497 35,900 660 Climbing FlightAware
07:51AM -32.5010 149.9360 327° Northwest 432 497 36,000 60 Climbing FlightAware
07:52AM -32.4550 149.9020 328° Northwest 435 501 36,000  Level FlightAware
07:52AM -32.3872 149.8504 328° Northwest 429 494 36,000  Level Aus ATC (RADAR)
07:52AM -32.3950 149.8570 328° Northwest 439 505 36,000  Level FlightAware
07:53AM -32.3240 149.8040 328° Northwest 437 503 36,000  Level FlightAware
07:53AM -32.2710 149.7640 327° Northwest 438 504 36,000  Level FlightAware
07:54AM -32.2040 149.7130 327° Northwest 440 506 36,000  Level Aus ATC (RADAR)
07:54AM -32.1612 149.6815 328° Northwest 438 504 36,000  Level Aus ATC (RADAR)
07:55AM -32.1150 149.6470 328° Northwest 438 504 36,000  Level FlightAware
07:55AM -32.0697 149.6128 328° Northwest 430 495 36,000  Level Aus ATC (RADAR)
07:55AM -32.0600 149.6060 328° Northwest 436 502 36,000  Level FlightAware
07:56AM -31.9902 149.5536 328° Northwest 435 501 36,000  Level Aus ATC (RADAR)
07:56AM -31.9830 149.5490 328° Northwest 436 502 36,000  Level FlightAware
07:57AM -31.9160 149.4990 328° Northwest 436 502 36,000  Level FlightAware
07:57AM -31.8451 149.4453 328° Northwest 436 502 36,000  Level Aus ATC (RADAR)
07:57AM -31.8480 149.4480 328° Northwest 437 503 36,000  Level FlightAware
07:58AM -31.7535 149.3780 328° Northwest 430 495 36,000  Level Aus ATC (RADAR)
07:58AM -31.7520 149.3770 328° Northwest 439 505 36,000 120 Level FlightAware
07:59AM -31.6850 149.3270 328° Northwest 439 505 36,100  Climbing FlightAware
08:00AM -31.6170 149.2780 328° Northwest 440 506 36,000 -120 Descending FlightAware
08:00AM -31.5603 149.2358 328° Northwest 440 506 36,000  Level Aus ATC (RADAR)
08:00AM -31.5530 149.2290 328° Northwest 440 506 36,000  Level FlightAware
08:01AM -31.4996 149.1911 328° Northwest 442 509 36,000  Level Aus ATC (RADAR)
08:01AM -31.4900 149.1850 328° Northwest 441 507 36,000  Level FlightAware
08:02AM -31.4130 149.1269 328° Northwest 442 509 36,000 120 Level Aus ATC (RADAR)
08:02AM -31.4070 149.1230 328° Northwest 442 509 36,100  Climbing FlightAware
08:02AM -31.3297 149.0657 328° Northwest 436 502 36,000  Descending Aus ATC (RADAR)
08:02AM -31.3430 149.0760 328° Northwest 435 501 36,100  Climbing FlightAware
08:03AM -31.2660 149.0200 328° Northwest 436 502 36,000 -120 Descending FlightAware
08:03AM -31.2131 148.9814 328° Northwest 442 509 36,000  Level Aus ATC (RADAR)
08:04AM -31.1740 148.9530 328° Northwest 36,000  Level FlightAware
08:04AM -31.1214 148.9140 328° Northwest 435 501 36,000  Level Aus ATC (RADAR)
08:05AM -31.0610 148.8698 328° Northwest 434 499 36,000  Level Aus ATC (RADAR)
08:06AM -30.9800 148.8113 328° Northwest 438 504 36,000  Level Aus ATC (RADAR)
08:07AM -30.8890 148.7451 328° Northwest 431 496 36,000  Level Aus ATC (RADAR)
08:07AM -30.8343 148.7057 328° Northwest 435 501 36,000  Level Aus ATC (RADAR)
08:08AM -30.7444 148.6407 328° Northwest 426 490 36,000  Level Aus ATC (RADAR)
08:09AM -30.6648 148.5834 328° Northwest 430 495 36,000  Level Aus ATC (RADAR)
08:10AM -30.5806 148.5231 328° Northwest 428 493 36,000  Level Aus ATC (RADAR)
08:10AM -30.5048 148.4687 328° Northwest 427 491 36,000  Level Aus ATC (RADAR)
08:11AM -30.4127 148.4032 328° Northwest 424 488 36,000 60 Level Aus ATC (RADAR)
08:12AM -30.3378 148.3499 328° Northwest 423 487 36,100  Climbing Aus ATC (RADAR)
08:13AM -30.2509 148.2873 328° Northwest 413 475 36,000 -60 Descending Aus ATC (RADAR)
08:14AM -30.1739 148.2322 328° Northwest 417 480 36,000 -60 Level Aus ATC (RADAR)
08:15AM -30.0713 148.1589 328° Northwest 408 470 35,900 -60 Descending Aus ATC (RADAR)
08:16AM -29.9976 148.1066 328° Northwest 411 473 35,900 60 Level Aus ATC (RADAR)
08:16AM -29.9218 148.0380 322° Northwest 407 468 36,000 60 Climbing Aus ATC (RADAR)
08:17AM -29.8993 148.0187 323° Northwest 406 467 36,000  Level Aus ATC (RADAR)
08:17AM -29.8494 147.9768 324° Northwest 399 459 36,000  Level Aus ATC (RADAR)
08:18AM -29.7756 147.9115 322° Northwest 399 459 36,000  Level Aus ATC (RADAR)
08:19AM -29.7082 147.8526 323° Northwest 400 460 36,000  Level Aus ATC (RADAR)
08:20AM -29.6169 147.7717 322° Northwest 406 467 36,100  Climbing Aus ATC (RADAR)
08:21AM -29.5494 147.7131 323° Northwest 407 468 36,100  Level Aus ATC (RADAR)
08:21AM -29.4738 147.6481 323° Northwest 408 470 36,100  Level Aus ATC (RADAR)
08:22AM -29.4517 147.6283 322° Northwest 407 468 36,100 -180 Level Aus ATC (RADAR)
08:22AM -29.3992 147.5867 325° Northwest 403 464 36,000 -120 Descending Aus ATC (RADAR)
08:23AM -29.3237 147.5187 322° Northwest 405 466 36,000 -60 Level Aus ATC (RADAR)
08:24AM -29.2484 147.4598 326° Northwest 399 459 35,900  Descending Aus ATC (RADAR)
08:25AM -29.1615 147.3782 321° Northwest 399 459 36,000  Climbing Aus ATC (RADAR)
08:26AM -29.0945 147.3215 324° Northwest 399 459 36,000  Level Aus ATC (RADAR)
08:26AM -29.0422 147.2778 324° Northwest 400 460 36,000 -60 Level Aus ATC (RADAR)
08:28AM -28.8659 147.1289 324° Northwest 36,000 -60 Level Aus ATC (Calculated)
08:30AM -28.9298 147.1845 323° Northwest  Level FlightAware Approximate
08:31AM -28.8312 147.1013 324° Northwest  Level FlightAware Approximate
08:32AM -28.7326 147.0183 324° Northwest  Level FlightAware Approximate
08:32AM -28.5458 146.8603 324° Northwest 36,000  Level Aus ATC (Calculated)
08:34AM -28.3712 146.7146 324° Northwest  Level FlightAware Approximate
08:35AM -28.2724 146.6324 324° Northwest  Level FlightAware Approximate
08:36AM -28.1734 146.5503 324° Northwest  Level FlightAware Approximate
08:37AM -28.0744 146.4684 324° Northwest  Level FlightAware Approximate
08:37AM -28.0680 146.4631 324° Northwest 36,000  Level Aus ATC (Calculated)
08:37AM -28.0680 146.4631 324° Northwest 36,000 -60 Level Aus ATC (Calculated)
08:39AM -27.8930 146.3188 324° Northwest  Level FlightAware Approximate
08:40AM -27.7939 146.2373 324° Northwest  Level FlightAware Approximate
08:41AM -27.6947 146.1559 324° Northwest  Level FlightAware Approximate
08:42AM -27.5955 146.0747 324° Northwest  Level FlightAware Approximate
08:42AM -27.6109 146.0872 324° Northwest 36,000  Level Aus ATC (Calculated)
08:44AM -27.4338 145.9427 324° Northwest  Level FlightAware Approximate
08:45AM -27.3345 145.8619 324° Northwest  Level FlightAware Approximate
08:46AM -27.2340 145.7830 324° Northwest  Level Estimated
08:46AM -27.2100 145.7609 324° Northwest 36,000  Level Aus ATC (Calculated)
08:47AM -27.0786 145.6545 324° Northwest 36,000 -60 Level Aus ATC (Calculated)
08:48AM -27.0742 145.6509 324° Northwest  Level FlightAware Approximate
08:49AM -26.9426 145.5447 324° Northwest  Level FlightAware Approximate
08:50AM -26.8431 145.4646 324° Northwest  Level FlightAware Approximate
08:50AM -26.8562 145.4751 324° Northwest 36,000  Level Aus ATC (Calculated)
08:51AM -26.7820 145.4154 324° Northwest 36,000 -60 Level Aus ATC (Calculated)
08:53AM -26.5944 145.2650 324° Northwest  Level FlightAware Approximate
08:54AM -26.4947 145.1853 324° Northwest  Level FlightAware Approximate
08:55AM -26.3949 145.1057 324° Northwest  Level FlightAware Approximate
08:55AM -26.4107 145.1183 324° Northwest 36,000  Level Aus ATC (Calculated)
08:56AM -26.2952 145.0263 324° Northwest  Level FlightAware Approximate
08:57AM -26.2560 144.9952 324° Northwest  Level FlightAware Approximate
08:58AM -26.1562 144.9160 325° Northwest  Level FlightAware Approximate
08:59AM -26.0551 144.8387 325° Northwest  Level Estimated
09:00AM -25.9552 144.7597 325° Northwest  Level FlightAware Approximate
09:00AM -25.9642 144.7642 325° Northwest 36,000  Level Aus ATC (Calculated)
09:01AM -25.8553 144.6808 325° Northwest  Level FlightAware Approximate
09:02AM -25.7759 144.6159 325° Northwest  Level FlightAware Approximate
09:03AM -25.6758 144.5373 325° Northwest  Level FlightAware Approximate
09:04AM -25.5758 144.4588 325° Northwest  Level FlightAware Approximate
09:05AM -25.4756 144.3805 325° Northwest  Level FlightAware Approximate
09:05AM -25.4861 144.3888 325° Northwest 36,000  Level Aus ATC (Calculated)
09:07AM -25.2874 144.2338 325° Northwest  Level FlightAware Approximate
09:08AM -25.1872 144.1559 325° Northwest  Level FlightAware Approximate
09:08AM -25.1669 144.1402 325° Northwest 36,000  Level Aus ATC (Calculated)
09:10AM -25.0214 144.0274 325° Northwest  Level FlightAware Approximate
09:10AM -25.0071 144.0163 325° Northwest 36,000  Level Aus ATC (Calculated)
09:11AM -24.9211 143.9498 325° Northwest  Level FlightAware Approximate
09:12AM -24.8080 143.8626 325° Northwest  Level FlightAware Approximate
09:13AM -24.7076 143.7852 325° Northwest  Level FlightAware Approximate
09:14AM -24.6071 143.7080 325° Northwest  Level FlightAware Approximate
09:15AM -24.5054 143.6328 325° Northwest  Level Estimated
09:15AM -24.5271 143.6467 325° Northwest 36,000  Level Aus ATC (Calculated)
09:17AM -24.3276 143.4942 325° Northwest  Level FlightAware Approximate
09:17AM -24.3134 143.4834 325° Northwest 36,000  Level Aus ATC (Calculated)
09:18AM -24.2270 143.4174 325° Northwest  Level FlightAware Approximate
09:19AM -24.1792 143.3811 325° Northwest  Level FlightAware Approximate
09:20AM -24.0786 143.3046 325° Northwest  Level FlightAware Approximate
09:21AM -23.9778 143.2281 325° Northwest  Level FlightAware Approximate
09:22AM -23.8771 143.1518 325° Northwest  Level FlightAware Approximate
09:22AM -23.8394 143.1233 325° Northwest 36,000  Level Aus ATC (Calculated)
09:23AM -23.7762 143.0756 325° Northwest  Level FlightAware Approximate
09:24AM -23.6965 143.0155 325° Northwest  Level FlightAware Approximate
09:25AM -23.5957 142.9395 325° Northwest  Level FlightAware Approximate
09:26AM -23.4948 142.8636 325° Northwest  Level FlightAware Approximate
09:27AM -23.3938 142.7878 325° Northwest  Level FlightAware Approximate
09:27AM -23.3478 142.7533 325° Northwest 36,000  Level Aus ATC (Calculated)
09:29AM -23.2030 142.6450 325° Northwest  Level FlightAware Approximate
09:30AM -23.1020 142.5696 326° Northwest  Level FlightAware Approximate
09:31AM -23.0009 142.4943 326° Northwest  Level FlightAware Approximate
09:32AM -22.8997 142.4191 326° Northwest  Level FlightAware Approximate
09:32AM -22.8553 142.3861 326° Northwest 36,000  Level Aus ATC (Calculated)
09:34AM -22.7103 142.2786 326° Northwest  Level FlightAware Approximate
09:34AM -22.6440 142.2295 326° Northwest 36,000  Level Aus ATC (Calculated)
09:35AM -22.6091 142.2037 326° Northwest  Level FlightAware Approximate
09:36AM -22.5073 142.1286 326° Northwest  Level FlightAware Approximate
09:36AM -22.4325 142.0734 326° Northwest 36,000  Level Aus ATC (Calculated)
09:37AM -22.4048 142.0558 326° Northwest  Level Estimated
09:37AM -22.3619 142.0215 326° Northwest 36,000  Level Aus ATC (Calculated)
09:38AM -22.2872 141.9666 326° Northwest  Level FlightAware Approximate
09:39AM -22.1896 141.8949 326° Northwest  Level FlightAware Approximate
09:39AM -22.1502 141.8660 326° Northwest 36,000  Level Aus ATC (Calculated)
09:39AM -22.1502 141.8660 326° Northwest 36,000 -900 Level Aus ATC (Calculated)
09:41AM -22.0116 141.7645 326° Northwest  Level FlightAware Approximate
09:42AM -21.9101 141.6904 326° Northwest  Level FlightAware Approximate
09:42AM -21.6620 141.5100 326° Northwest 452 520 33,000  Level FlightAware
09:43AM -21.8086 141.6164 326° Northwest  Level FlightAware Approximate
09:43AM -21.5920 141.4590 326° Northwest 452 520 33,000  Level FlightAware
09:44AM -21.5130 141.4020 326° Northwest 455 524 33,000  Level FlightAware
09:44AM -21.6543 141.5040 326° Northwest 36,000  Climbing Aus ATC (Calculated)
09:45AM -21.4440 141.3520 326° Northwest 457 526 33,000 -2,460 Descending FlightAware
09:45AM -21.3640 141.2940 326° Northwest 460 529 33,000 60 Level FlightAware
09:46AM -21.2930 141.2430 326° Northwest 461 531 33,100 60 Climbing FlightAware
09:47AM -21.2100 141.1840 326° Northwest 461 531 33,100  Level FlightAware
09:47AM -21.1400 141.1320 325° Northwest 460 529 33,100 -120 Level FlightAware
09:48AM -21.0720 141.0840 327° Northwest 460 529 33,000 -120 Descending FlightAware
09:49AM -20.9910 141.0250 326° Northwest 459 528 33,000  Level FlightAware
09:49AM -21.1214 141.1185 326° Northwest 36,000  Climbing Aus ATC (Calculated)
09:49AM -20.9200 140.9740 326° Northwest 460 529 33,000 -2,580 Descending FlightAware
09:50AM -20.8390 140.9160 326° Northwest 459 528 33,000  Level FlightAware
09:51AM -20.7680 140.8650 326° Northwest 459 528 33,000  Level FlightAware
09:52AM -20.6980 140.8150 326° Northwest 461 531 33,000  Level FlightAware
09:52AM -20.8249 140.9055 326° Northwest 36,000  Climbing Aus ATC (Calculated)
09:52AM -20.6250 140.7630 326° Northwest 462 532 33,000 -2,820 Descending FlightAware
09:53AM -20.5470 140.7070 326° Northwest 464 534 33,000 60 Level FlightAware
09:54AM -20.4640 140.6490 327° Northwest 464 534 33,100 60 Climbing FlightAware
09:54AM -20.5875 140.7357 326° Northwest 36,000  Climbing Aus ATC (Calculated)
09:54AM -20.4040 140.6050 325° Northwest 465 535 33,100 -3,000 Descending FlightAware
09:55AM -20.3230 140.5480 325° Northwest 467 537 33,000 -120 Descending FlightAware
09:56AM -20.2600 140.5030 326° Northwest 467 537 33,000  Level FlightAware
09:56AM -20.1770 140.4440 326° Northwest 468 539 33,000  Level FlightAware
09:57AM -20.2906 140.5242 326° Northwest 36,000  Climbing Aus ATC (Calculated)
09:57AM -20.1050 140.3920 326° Northwest 467 537 33,000 -3,600 Descending FlightAware
09:58AM -20.0310 140.3320 323° Northwest 468 539 33,000  Level FlightAware
09:58AM -19.9600 140.2740 323° Northwest 468 539 33,000  Level FlightAware
09:59AM -19.8920 140.2200 323° Northwest 468 539 33,000  Level FlightAware
10:00AM -19.8120 140.1540 322° Northwest 468 539 33,000  Level FlightAware
10:01AM -19.7420 140.0980 323° Northwest 467 537 33,000  Level FlightAware
10:01AM -19.6740 140.0420 322° Northwest 467 537 33,000  Level FlightAware
10:02AM -19.7589 140.1110 323° Northwest 36,000  Climbing Aus ATC (Calculated)
10:02AM -19.5980 139.9810 323° Northwest 466 536 33,000 -3,960 Descending FlightAware
10:03AM -19.5290 139.9260 323° Northwest 465 535 33,000  Level FlightAware
10:03AM -19.4600 139.8700 323° Northwest 465 535 33,000  Level FlightAware
10:04AM -19.3810 139.8070 323° Northwest 463 533 33,000  Level FlightAware
10:05AM -19.3130 139.7510 322° Northwest 465 535 33,000  Level FlightAware
10:05AM -19.2370 139.6910 323° Northwest 467 537 33,000  Level FlightAware
10:06AM -19.1680 139.6370 324° Northwest 469 540 33,000  Level FlightAware
10:07AM -19.0980 139.5790 322° Northwest 471 542 33,000 60 Level FlightAware
10:07AM -19.2871 139.7306 323° Northwest 36,000 120 Climbing Aus ATC (Calculated)
10:08AM -19.0180 139.5150 322° Northwest 473 544 33,100 -2,160 Descending FlightAware
10:08AM -18.9470 139.4590 323° Northwest 474 545 33,100 -120 Level FlightAware
10:09AM -18.8700 139.3970 323° Northwest 474 545 33,000 -120 Descending FlightAware
10:10AM -18.8000 139.3420 323° Northwest 474 545 33,000  Level FlightAware
10:10AM -18.7190 139.2770 323° Northwest 474 545 33,000  Level FlightAware
10:11AM -18.6490 139.2210 323° Northwest 473 544 33,000  Level FlightAware
10:12AM -18.5800 139.1670 323° Northwest 472 543 33,000  Level FlightAware
10:12AM -18.8144 139.3524 323° Northwest 36,000  Climbing Aus ATC (Calculated)
10:12AM -18.5270 139.1240 322° Northwest 472 543 33,000 -2,760 Descending FlightAware
10:13AM -18.6961 139.2582 323° Northwest 36,000  Climbing Aus ATC (Calculated)
10:13AM -18.4490 139.0630 322° Northwest 473 544 33,000 -3,000 Descending FlightAware
10:14AM -18.3790 139.0070 322° Northwest 474 545 33,000  Level FlightAware
10:14AM -18.3090 138.9520 323° Northwest 474 545 33,000  Level FlightAware
10:15AM -18.2280 138.8880 323° Northwest 476 548 33,000  Level FlightAware
10:15AM -18.4593 139.0701 323° Northwest 36,000  Climbing Aus ATC (Calculated)
10:16AM -18.1420 138.8180 323° Northwest 476 548 33,000 -1,980 Descending FlightAware
10:17AM -18.0620 138.7560 324° Northwest 477 549 33,000  Level FlightAware
10:17AM -17.9900 138.7000 324° Northwest 479 551 33,000  Level FlightAware
10:18AM -17.9150 138.6390 322° Northwest 479 551 33,000  Level FlightAware
10:19AM -17.8560 138.5900 322° Northwest 479 551 33,000  Level FlightAware
10:19AM -17.7960 138.5420 323° Northwest 479 551 33,000  Level FlightAware
10:20AM -17.9555 138.6721 322° Northwest 36,000  Climbing Aus ATC (Calculated)
10:20AM -17.7370 138.4930 322° Northwest 479 551 33,000 -3,480 Descending FlightAware
10:21AM -17.6630 138.4320 322° Northwest 479 551 33,000  Level FlightAware
10:22AM -17.6030 138.3840 323° Northwest 479 551 33,000  Level FlightAware
10:22AM -17.5440 138.3350 322° Northwest 479 551 33,000  Level FlightAware
10:23AM -17.4850 138.2860 322° Northwest 479 551 33,000  Level FlightAware
10:24AM -17.4250 138.2380 323° Northwest 479 551 33,000  Level FlightAware
10:24AM -17.3660 138.1890 322° Northwest 479 551 33,000  Level FlightAware
10:25AM -17.4210 138.2531 317° Northwest 36,000  Climbing Aus ATC (Calculated)
10:25AM -17.2920 138.1280 322° Northwest 479 551 33,000 -4,200 Descending FlightAware
10:26AM -17.2320 138.0800 323° Northwest 479 551 33,000  Level FlightAware
10:26AM -17.1730 138.0310 323° Northwest 479 551 33,000  Level FlightAware
10:27AM -17.1130 137.9830 323° Northwest 479 551 33,000 120 Level FlightAware
10:28AM -17.1088 138.0098 323° Northwest 36,000 120 Climbing Aus ATC (Calculated)
10:30AM -16.9759 137.9066 323° Northwest  Level FlightAware Approximate
10:31AM -16.8775 137.8303 323° Northwest  Level FlightAware Approximate
10:32AM -16.7791 137.7540 323° Northwest  Level FlightAware Approximate
10:33AM -16.6806 137.6779 323° Northwest  Level FlightAware Approximate
10:33AM -16.5281 137.5601 324° Northwest 36,000  Level Aus ATC (Calculated)
10:34AM -16.5821 137.6017 323° Northwest  Level FlightAware Approximate
10:35AM -16.4164 137.4740 324° Northwest  Level FlightAware Approximate
10:35AM -16.3940 137.4567 324° Northwest 36,000  Level Aus ATC (Calculated)
10:36AM -16.2598 137.3534 324° Northwest 36,000  Level Aus ATC (Calculated)
10:38AM -16.1086 137.2373 324° Northwest  Level FlightAware Approximate
10:39AM -16.0099 137.1616 324° Northwest  Level FlightAware Approximate
10:39AM -15.9913 137.1473 324° Northwest 36,000  Level Aus ATC (Calculated)
10:39AM -15.9913 137.1473 324° Northwest 36,000  Level Aus ATC (Calculated)
10:41AM -15.8021 137.0025 324° Northwest  Level FlightAware Approximate
10:42AM -15.7034 136.9271 324° Northwest  Level FlightAware Approximate
10:42AM -15.6329 136.8734 324° Northwest 36,000  Level Aus ATC (Calculated)
10:44AM -15.4896 136.7642 324° Northwest  Level FlightAware Approximate
10:45AM -15.3908 136.6890 324° Northwest  Level FlightAware Approximate
10:46AM -15.2920 136.6139 324° Northwest  Level FlightAware Approximate
10:47AM -15.2945 136.6158 324° Northwest  Level FlightAware Approximate
10:47AM -15.0975 136.4663 324° Northwest 36,000  Level Aus ATC (Calculated)
10:49AM -14.9524 136.3564 324° Northwest  Level FlightAware Approximate
10:50AM -14.8534 136.2816 324° Northwest  Level FlightAware Approximate
10:50AM -14.5028 136.0205 324° Northwest 468 539 36,000  Level Aus ATC (RADAR)
10:51AM -14.4290 135.9633 323° Northwest 452 520 36,000  Level Aus ATC (RADAR)
10:52AM -14.3248 135.8859 324° Northwest 454 522 36,000  Level Aus ATC (RADAR)
10:53AM -14.1796 135.7774 324° Northwest 449 517 36,000  Level Aus ATC (RADAR)
10:54AM -14.1128 135.7264 323° Northwest 447 514 36,000  Level Aus ATC (RADAR)
11:00AM -13.5392 135.2987 324° Northwest 480 552 36,000  Level Aus ATC (RADAR)
11:00AM -13.4690 135.2469 324° Northwest 472 543 36,000 -60 Level Aus ATC (RADAR)
11:01AM -13.3612 135.1651 324° Northwest 447 514 35,900 -60 Descending Aus ATC (RADAR)
11:03AM -13.1913 135.0361 324° Northwest 449 517 35,900  Level Aus ATC (RADAR)
11:03AM -13.1550 135.0112 326° Northwest 452 520 36,000  Climbing Aus ATC (RADAR)
11:04AM -13.0432 134.9286 324° Northwest 449 517 35,900 -60 Descending Aus ATC (RADAR)
11:06AM -12.9076 134.8276 324° Northwest 446 513 35,900  Level Aus ATC (RADAR)
11:08AM -12.7307 134.6952 324° Northwest 438 504 35,900  Level Aus ATC (RADAR)
11:09AM -12.5836 134.5889 325° Northwest 450 518 36,000  Climbing Aus ATC (RADAR)
11:10AM -12.5151 134.5383 324° Northwest 451 519 35,900  Descending Aus ATC (RADAR)
11:11AM -12.4114 134.4615 324° Northwest 449 517 36,000 120 Climbing Aus ATC (RADAR)
11:11AM -12.3980 134.4520 324° Northwest 456 525 36,100 60 Climbing FlightAware
11:11AM -12.3260 134.3990 324° Northwest 457 526 36,100 -120 Level FlightAware
11:12AM -12.2631 134.3518 324° Northwest 452 520 36,000 -180 Descending Aus ATC (RADAR)
11:12AM -12.2570 134.3480 324° Northwest 456 525 36,000  Level FlightAware
11:13AM -12.1947 134.3003 324° Northwest 449 517 36,000  Level Aus ATC (RADAR)
11:13AM -12.1960 134.3030 324° Northwest 461 531 36,000  Level FlightAware
11:13AM -12.1270 134.2530 325° Northwest 460 529 36,000 -120 Level FlightAware
11:14AM -12.0885 134.2246 325° Northwest 452 520 35,900  Descending Aus ATC (RADAR)
11:14AM -12.0590 134.2030 325° Northwest 460 529 36,000 60 Climbing FlightAware
11:15AM -11.9900 134.1520 324° Northwest 460 529 36,000  Level FlightAware
11:15AM -11.9320 134.1090 324° Northwest 460 529 36,000 -120 Level FlightAware
11:16AM -11.8718 134.0661 324° Northwest 452 520 35,900  Descending Aus ATC (RADAR)
11:16AM -11.8730 134.0650 324° Northwest 460 529 36,000  Climbing FlightAware
11:17AM -11.7688 133.9906 324° Northwest 446 513 35,900  Descending Aus ATC (RADAR)
11:17AM -11.7590 133.9830 324° Northwest 456 525 36,000 60 Climbing FlightAware
11:18AM -11.6870 133.9300 324° Northwest 456 525 36,000 -120 Level FlightAware
11:18AM -11.6228 133.8838 324° Northwest 444 511 35,900  Descending Aus ATC (RADAR)
11:18AM -11.6160 133.8790 324° Northwest 458 527 36,000  Climbing FlightAware
11:19AM -11.5553 133.8336 324° Northwest 442 509 35,900  Descending Aus ATC (RADAR)
11:19AM -11.5460 133.8270 324° Northwest 458 527 36,000 60 Climbing FlightAware
11:20AM -11.4670 133.7700 325° Northwest 459 528 36,000  Level FlightAware
11:20AM -11.3910 133.7140 324° Northwest 460 529 36,000  Level FlightAware
11:21AM -11.3230 133.6650 325° Northwest 454 522 36,000  Level FlightAware
11:22AM -11.2430 133.6070 325° Northwest 455 524 36,000  Level FlightAware
11:23AM -11.1740 133.5560 324° Northwest 457 526 36,000  Level FlightAware
11:23AM -11.1194 133.5164 324° Northwest 453 521 36,000  Level Aus ATC (RADAR)
11:23AM -11.1030 133.5050 324° Northwest 457 526 36,000  Level FlightAware
11:24AM -11.0230 133.4460 324° Northwest 457 526 36,000  Level FlightAware
11:24AM -10.9811 133.4154 324° Northwest 446 513 36,000  Level Aus ATC (RADAR)
11:25AM -10.9540 133.3960 324° Northwest 458 527 36,000  Level FlightAware
11:25AM -10.9081 133.3627 324° Northwest 461 531 36,000  Level Aus ATC (RADAR)
11:25AM -10.8730 133.3380 324° Northwest 458 527 36,000  Level FlightAware
11:26AM -10.8030 133.2870 324° Northwest 458 527 36,000  Level FlightAware
11:27AM -10.7330 133.2360 324° Northwest 457 526 36,000 -120 Level FlightAware
11:27AM -10.6556 133.1795 324° Northwest 449 517 35,900  Descending Aus ATC (RADAR)
11:27AM -10.6560 133.1800 324° Northwest 457 526 36,000 120 Climbing FlightAware
11:28AM -10.5860 133.1290 324° Northwest 456 525 36,000 -180 Level FlightAware
11:28AM -10.5770 133.1224 324° Northwest 449 517 35,900  Descending Aus ATC (RADAR)
11:29AM -10.5070 133.0720 325° Northwest 456 525 36,000  Climbing FlightAware
11:29AM -10.4720 133.0463 325° Northwest 451 519 35,900  Descending Aus ATC (RADAR)
11:30AM -10.4380 133.0230 325° Northwest 455 524 36,000 60 Climbing FlightAware
11:30AM -10.3660 132.9700 324° Northwest 458 527 36,000 -120 Level FlightAware
11:30AM -10.3317 132.9447 324° Northwest 450 518 35,900  Descending Aus ATC (RADAR)
11:31AM -10.2860 132.9130 324° Northwest 461 531 36,000 120 Climbing FlightAware
11:31AM -10.2526 132.8876 324° Northwest 452 520 36,000  Level Aus ATC (RADAR)
11:32AM -10.2170 132.8630 324° Northwest 463 533 36,000  Level FlightAware
11:32AM -10.1472 132.8122 324° Northwest 449 517 36,000 120 Level Aus ATC (RADAR)
11:32AM -10.1360 132.8050 324° Northwest 472 543 36,100 120 Climbing FlightAware
11:33AM -10.0650 132.7530 324° Northwest 473 544 36,100 -120 Level FlightAware
11:34AM -9.9940 132.7009 324° Northwest 460 529 36,000  Descending Aus ATC (RADAR)
11:34AM -9.9930 132.7010 324° Northwest 475 547 36,100  Climbing FlightAware
11:34AM -9.9225 132.6494 324° Northwest 458 527 36,000  Descending Aus ATC (RADAR)
11:34AM -9.9220 132.6500 324° Northwest 474 545 36,100 120 Climbing FlightAware
11:35AM -9.8510 132.5970 324° Northwest 474 545 36,100 -240 Level FlightAware
11:35AM -9.8062 132.5654 324° Northwest 458 527 35,900 -120 Descending Aus ATC (RADAR)
11:36AM -9.7450 132.5220 324° Northwest 472 543 36,000 60 Climbing FlightAware
11:37AM -9.6850 132.4780 324° Northwest 472 543 36,000 -180 Level FlightAware
11:37AM -9.6623 132.4607 324° Northwest 461 531 35,900  Descending Aus ATC (RADAR)
11:37AM -9.6250 132.4330 324° Northwest 472 543 36,000  Climbing FlightAware
11:37AM -9.5919 132.4106 324° Northwest 454 522 35,900  Descending Aus ATC (RADAR)
11:38AM -9.5650 132.3890 324° Northwest 472 543 36,000  Climbing FlightAware
11:38AM -9.4776 132.3287 324° Northwest 452 520 35,900  Descending Aus ATC (RADAR)
11:39AM -9.4490 132.3100 324° Northwest 460 529 36,000 60 Climbing FlightAware
11:40AM -9.3830 132.2590 323° Northwest 460 529 36,000 -120 Level FlightAware
11:40AM -9.3281 132.2211 323° Northwest 449 517 35,900  Descending Aus ATC (RADAR)
11:40AM -9.2870 132.1940 323° Northwest 460 529 36,000  Climbing FlightAware
11:41AM -9.2482 132.1637 323° Northwest 451 519 35,900  Descending Aus ATC (RADAR)
11:41AM -9.2360 132.1570 323° Northwest 461 531 36,000 60 Climbing FlightAware
11:42AM -9.1560 132.1000 325° Northwest 470 541 36,000 60 Level FlightAware
11:42AM -9.0800 132.0460 325° Northwest 471 542 36,100 60 Climbing FlightAware
11:43AM -9.0110 131.9950 324° Northwest 471 542 36,100  Level FlightAware
11:44AM -8.9510 131.9510 324° Northwest 471 542 36,100 -120 Level FlightAware
11:44AM -8.8823 131.9021 324° Northwest 454 522 36,000  Descending Aus ATC (RADAR)
11:44AM -8.8910 131.9070 324° Northwest 471 542 36,100  Climbing FlightAware
11:45AM -8.8199 131.8568 324° Northwest 456 525 36,000  Descending Aus ATC (RADAR)
11:45AM -8.8310 131.8630 324° Northwest 471 542 36,100 60 Climbing FlightAware
11:46AM -8.7710 131.8190 324° Northwest 471 542 36,100 -240 Level FlightAware
11:46AM -8.6761 131.7532 324° Northwest 455 524 35,900  Descending Aus ATC (RADAR)
11:47AM -8.6970 131.7640 324° Northwest 471 542 36,100 120 Climbing FlightAware
11:47AM -8.6370 131.7200 324° Northwest 471 542 36,100 -240 Level FlightAware
11:48AM -8.4975 131.6275 324° Northwest 422 486 35,900  Descending Aus ATC (RADAR)
11:48AM -8.5770 131.6760 324° Northwest 471 542 36,100 180 Climbing FlightAware
11:49AM -8.5170 131.6320 324° Northwest 471 542 36,100 -180 Level FlightAware
11:49AM -8.3460 131.5173 324° Northwest 449 517 35,900  Descending Aus ATC (RADAR)
11:49AM -8.4570 131.5880 324° Northwest 471 542 36,100  Climbing FlightAware
11:50AM -8.2936 131.4804 324° Northwest 449 517 35,900  Descending Aus ATC (RADAR)
11:50AM -8.3820 131.5330 324° Northwest 471 542 36,100 120 Climbing FlightAware
11:51AM -8.3220 131.4890 324° Northwest 471 542 36,100  Level FlightAware
11:51AM -8.2620 131.4450 324° Northwest 471 542 36,100  Level FlightAware
11:52AM -8.2020 131.4010 324° Northwest 471 542 36,100 -120 Level FlightAware
11:55AM -7.9372 131.2538 331° Northwest  Level Estimated
11:56AM -7.8298 131.1942 331° Northwest  Level Estimated
11:57AM -7.7224 131.1346 331° Northwest  Level Estimated
11:58AM -7.6150 131.0750 331° Northwest  Level Estimated
11:59AM -7.5076 131.0154 331° Northwest  Level Estimated
12:00PM -7.4002 130.9559 331° Northwest  Level Estimated
12:01PM -7.2927 130.8965 331° Northwest  Level Estimated
12:02PM -7.1853 130.8370 331° Northwest  Level Estimated
12:03PM -7.0779 130.7776 331° Northwest  Level Estimated
12:04PM -6.9704 130.7182 331° Northwest  Level Estimated
12:05PM -6.8630 130.6588 331° Northwest  Level Estimated
12:06PM -6.7555 130.5995 331° Northwest  Level Estimated
12:07PM -6.6480 130.5401 331° Northwest  Level Estimated
12:08PM -6.5406 130.4809 331° Northwest  Level Estimated
12:09PM -6.4331 130.4216 331° Northwest  Level Estimated
12:10PM -6.3256 130.3623 331° Northwest  Level Estimated
12:11PM -6.2181 130.3031 331° Northwest  Level Estimated
12:12PM -6.1106 130.2439 331° Northwest  Level Estimated
12:13PM -6.0031 130.1848 331° Northwest  Level Estimated
12:14PM -5.8955 130.1256 331° Northwest  Level Estimated
12:15PM -5.7880 130.0665 331° Northwest  Level Estimated
12:16PM -5.6805 130.0074 331° Northwest  Level Estimated
12:17PM -5.5730 129.9483 331° Northwest  Level Estimated
12:18PM -5.4654 129.8893 331° Northwest  Level Estimated
12:19PM -5.3579 129.8302 331° Northwest  Level Estimated
12:20PM -5.2503 129.7712 331° Northwest  Level Estimated
12:21PM -5.1428 129.7122 331° Northwest  Level Estimated
12:22PM -5.0352 129.6533 331° Northwest  Level Estimated
12:23PM -4.9276 129.5943 331° Northwest  Level Estimated
12:24PM -4.8201 129.5354 331° Northwest  Level Estimated
12:25PM -4.7125 129.4765 331° Northwest  Level Estimated
12:26PM -4.6049 129.4176 331° Northwest  Level Estimated
12:27PM -4.4973 129.3587 331° Northwest  Level Estimated
12:28PM -4.3897 129.2998 331° Northwest  Level Estimated
12:29PM -4.2821 129.2410 331° Northwest  Level Estimated
12:30PM -4.1745 129.1821 331° Northwest  Level Estimated
12:31PM -4.0669 129.1233 331° Northwest  Level Estimated
12:32PM -3.9593 129.0645 331° Northwest  Level Estimated
12:33PM -3.8517 129.0058 331° Northwest  Level Estimated
12:34PM -3.7441 128.9470 331° Northwest  Level Estimated
12:35PM -3.6365 128.8882 331° Northwest  Level Estimated
12:36PM -3.5288 128.8295 331° Northwest  Level Estimated
12:37PM -3.4212 128.7708 331° Northwest  Level Estimated
12:38PM -3.3136 128.7121 331° Northwest  Level Estimated
12:39PM -3.2059 128.6534 331° Northwest  Level Estimated
12:40PM -3.0983 128.5947 331° Northwest  Level Estimated
12:41PM -2.9906 128.5360 331° Northwest  Level Estimated
12:42PM -2.8830 128.4773 331° Northwest  Level Estimated
12:43PM -2.7753 128.4187 331° Northwest  Level Estimated
12:44PM -2.6677 128.3600 331° Northwest  Level Estimated
12:45PM -2.5600 128.3014 331° Northwest  Level Estimated
12:46PM -2.4524 128.2428 331° Northwest  Level Estimated
12:47PM -2.3447 128.1842 331° Northwest  Level Estimated
12:48PM -2.2371 128.1256 331° Northwest  Level Estimated
12:49PM -2.1294 128.0670 331° Northwest  Level Estimated
12:50PM -2.0217 128.0084 331° Northwest  Level Estimated
12:51PM -1.9140 127.9498 331° Northwest  Level Estimated
12:52PM -1.8064 127.8913 331° Northwest  Level Estimated
12:53PM -1.6987 127.8327 331° Northwest  Level Estimated
12:54PM -1.5910 127.7741 331° Northwest  Level Estimated
12:55PM -1.4833 127.7156 331° Northwest  Level Estimated
12:56PM -1.3757 127.6570 331° Northwest  Level Estimated
12:57PM -1.2680 127.5985 331° Northwest  Level Estimated
12:58PM -1.1603 127.5399 331° Northwest  Level Estimated
12:59PM -1.0526 127.4814 331° Northwest  Level Estimated
01:00PM -0.9449 127.4229 331° Northwest  Level Estimated
01:01PM -0.8372 127.3644 331° Northwest  Level Estimated
01:02PM -0.7296 127.3058 331° Northwest  Level Estimated
01:03PM -0.6219 127.2473 331° Northwest  Level Estimated
01:04PM -0.5142 127.1888 331° Northwest  Level Estimated
01:05PM -0.4065 127.1303 331° Northwest  Level Estimated
01:06PM -0.2988 127.0718 331° Northwest  Level Estimated
01:07PM -0.1911 127.0133 331° Northwest  Level Estimated
01:08PM -0.0834 126.9548 331° Northwest  Level Estimated
01:09PM 0.0243 126.8963 331° Northwest  Level Estimated
01:10PM 0.1320 126.8378 331° Northwest  Level Estimated
01:11PM 0.2396 126.7792 331° Northwest  Level Estimated
01:12PM 0.3473 126.7207 331° Northwest  Level Estimated
01:13PM 0.4550 126.6622 331° Northwest  Level Estimated
01:14PM 0.5627 126.6037 331° Northwest  Level Estimated
01:15PM 0.6704 126.5452 331° Northwest  Level Estimated
01:16PM 0.7781 126.4867 331° Northwest  Level Estimated
01:17PM 0.8858 126.4281 331° Northwest  Level Estimated
01:18PM 0.9935 126.3696 331° Northwest  Level Estimated
01:19PM 1.1012 126.3111 331° Northwest  Level Estimated
01:20PM 1.2088 126.2526 331° Northwest  Level Estimated
01:21PM 1.3165 126.1940 331° Northwest  Level Estimated
01:22PM 1.4242 126.1355 331° Northwest  Level Estimated
01:23PM 1.5319 126.0769 331° Northwest  Level Estimated
01:24PM 1.6395 126.0184 331° Northwest  Level Estimated
01:25PM 1.7472 125.9598 331° Northwest  Level Estimated
01:26PM 1.8549 125.9013 331° Northwest  Level Estimated
01:27PM 1.9626 125.8427 331° Northwest  Level Estimated
01:28PM 2.0702 125.7841 331° Northwest  Level Estimated
01:29PM 2.1779 125.7255 331° Northwest  Level Estimated
01:30PM 2.2856 125.6669 331° Northwest  Level Estimated
01:31PM 2.3932 125.6083 331° Northwest  Level Estimated
01:32PM 2.5009 125.5497 331° Northwest  Level Estimated
01:33PM 2.6086 125.4911 331° Northwest  Level Estimated
01:34PM 2.7162 125.4324 331° Northwest  Level Estimated
01:35PM 2.8239 125.3738 331° Northwest  Level Estimated
01:36PM 2.9315 125.3151 331° Northwest  Level Estimated
01:37PM 3.0392 125.2564 331° Northwest  Level Estimated
01:38PM 3.1468 125.1977 331° Northwest  Level Estimated
01:39PM 3.2544 125.1391 331° Northwest  Level Estimated
01:40PM 3.3621 125.0804 331° Northwest  Level Estimated
01:41PM 3.4697 125.0216 331° Northwest  Level Estimated
01:42PM 3.5773 124.9629 331° Northwest  Level Estimated
01:43PM 3.6850 124.9042 331° Northwest  Level Estimated
01:44PM 3.7926 124.8454 331° Northwest  Level Estimated
01:45PM 3.9002 124.7866 331° Northwest  Level Estimated
01:46PM 4.0078 124.7278 331° Northwest  Level Estimated
01:47PM 4.1154 124.6690 331° Northwest  Level Estimated
01:48PM 4.2230 124.6102 331° Northwest  Level Estimated
01:49PM 4.3306 124.5514 331° Northwest  Level Estimated
01:50PM 4.4382 124.4925 331° Northwest  Level Estimated
01:51PM 4.5458 124.4336 331° Northwest  Level Estimated
01:52PM 4.6534 124.3748 331° Northwest  Level Estimated
01:53PM 4.7610 124.3158 331° Northwest  Level Estimated
01:54PM 4.8686 124.2569 331° Northwest  Level Estimated
01:55PM 4.9761 124.1980 331° Northwest  Level Estimated
01:56PM 5.0837 124.1390 331° Northwest  Level Estimated
01:57PM 5.1913 124.0800 331° Northwest  Level Estimated
01:58PM 5.2988 124.0210 331° Northwest  Level Estimated
01:59PM 5.4064 123.9620 331° Northwest  Level Estimated
02:00PM 5.5139 123.9030 331° Northwest  Level Estimated
02:01PM 5.6215 123.8439 331° Northwest  Level Estimated
02:02PM 5.7290 123.7848 331° Northwest  Level Estimated
02:03PM 5.8365 123.7257 331° Northwest  Level Estimated
02:04PM 5.9440 123.6666 331° Northwest  Level Estimated
02:05PM 6.0515 123.6074 331° Northwest  Level Estimated
02:06PM 6.1591 123.5482 331° Northwest  Level Estimated
02:07PM 6.2666 123.4891 331° Northwest  Level Estimated
02:08PM 6.3741 123.4298 331° Northwest  Level Estimated
02:09PM 6.4815 123.3706 331° Northwest  Level Estimated
02:10PM 6.5890 123.3113 331° Northwest  Level Estimated
02:11PM 6.6965 123.2520 331° Northwest  Level Estimated
02:12PM 6.8040 123.1927 331° Northwest  Level Estimated
02:13PM 6.9114 123.1333 331° Northwest  Level Estimated
02:14PM 7.0189 123.0739 331° Northwest  Level Estimated
02:15PM 7.1263 123.0145 331° Northwest  Level Estimated
02:16PM 7.2337 122.9551 331° Northwest  Level Estimated
02:17PM 7.3412 122.8956 331° Northwest  Level Estimated
02:18PM 7.4486 122.8361 331° Northwest  Level Estimated
02:19PM 7.5560 122.7766 331° Northwest  Level Estimated
02:20PM 7.6634 122.7170 331° Northwest  Level Estimated
02:21PM 7.7708 122.6574 331° Northwest  Level Estimated
02:22PM 7.8782 122.5978 331° Northwest  Level Estimated
02:23PM 7.9856 122.5382 331° Northwest  Level Estimated
02:24PM 8.0930 122.4785 331° Northwest  Level Estimated
02:25PM 8.2003 122.4188 331° Northwest  Level Estimated
02:26PM 8.3077 122.3591 331° Northwest  Level Estimated
02:27PM 8.4150 122.2993 331° Northwest  Level Estimated
02:28PM 8.5224 122.2395 331° Northwest  Level Estimated
02:29PM 8.6297 122.1796 331° Northwest  Level Estimated
02:30PM 8.7370 122.1198 331° Northwest  Level Estimated
02:31PM 8.8443 122.0599 331° Northwest  Level Estimated
02:32PM 8.9516 121.9999 331° Northwest  Level Estimated
02:33PM 9.0589 121.9399 331° Northwest  Level Estimated
02:34PM 9.1662 121.8799 331° Northwest  Level Estimated
02:35PM 9.2735 121.8199 331° Northwest  Level Estimated
02:36PM 9.3807 121.7598 331° Northwest  Level Estimated
02:37PM 9.4880 121.6997 331° Northwest  Level Estimated
02:38PM 9.5952 121.6395 331° Northwest  Level Estimated
02:39PM 9.7024 121.5793 331° Northwest  Level Estimated
02:40PM 9.8097 121.5191 331° Northwest  Level Estimated
02:41PM 9.9169 121.4588 331° Northwest  Level Estimated
02:42PM 10.0241 121.3985 331° Northwest  Level Estimated
02:43PM 10.1313 121.3381 331° Northwest  Level Estimated
02:44PM 10.2384 121.2777 331° Northwest  Level Estimated
02:45PM 10.3456 121.2173 331° Northwest  Level Estimated
02:46PM 10.4527 121.1568 331° Northwest  Level Estimated
02:47PM 10.5599 121.0963 331° Northwest  Level Estimated
02:48PM 10.6670 121.0357 331° Northwest  Level Estimated
02:49PM 10.7741 120.9751 331° Northwest  Level Estimated
02:50PM 10.8812 120.9144 331° Northwest  Level Estimated
02:51PM 10.9883 120.8538 331° Northwest  Level Estimated
02:52PM 11.0954 120.7930 331° Northwest  Level Estimated
02:53PM 11.2025 120.7322 331° Northwest  Level Estimated
02:54PM 11.3095 120.6714 331° Northwest  Level Estimated
02:55PM 11.4166 120.6105 331° Northwest  Level Estimated
02:56PM 11.5236 120.5496 331° Northwest  Level Estimated
02:57PM 11.6306 120.4886 331° Northwest  Level Estimated
02:58PM 11.7376 120.4276 331° Northwest  Level Estimated
02:59PM 11.8446 120.3666 331° Northwest  Level Estimated
03:00PM 11.9516 120.3055 331° Northwest  Level Estimated
03:01PM 12.0586 120.2443 331° Northwest  Level Estimated
03:02PM 12.1655 120.1831 331° Northwest  Level Estimated
03:03PM 12.2725 120.1218 331° Northwest  Level Estimated
03:04PM 12.3794 120.0605 331° Northwest  Level Estimated
03:05PM 12.4863 119.9992 331° Northwest  Level Estimated
03:06PM 12.5932 119.9378 331° Northwest  Level Estimated
03:07PM 12.7001 119.8763 331° Northwest  Level Estimated
03:08PM 12.8070 119.8148 331° Northwest  Level Estimated
03:09PM 12.9138 119.7533 331° Northwest  Level Estimated
03:10PM 13.0207 119.6917 331° Northwest  Level Estimated
03:11PM 13.1275 119.6300 331° Northwest  Level Estimated
03:12PM 13.2343 119.5683 331° Northwest  Level Estimated
03:13PM 13.3411 119.5065 331° Northwest  Level Estimated
03:14PM 13.4479 119.4447 331° Northwest  Level Estimated
03:15PM 13.5547 119.3828 331° Northwest  Level Estimated
03:16PM 13.6614 119.3208 331° Northwest  Level Estimated
03:17PM 13.7682 119.2589 331° Northwest  Level Estimated
03:18PM 13.8749 119.1968 331° Northwest  Level Estimated
03:19PM 13.9816 119.1347 331° Northwest  Level Estimated
03:20PM 14.0883 119.0725 331° Northwest  Level Estimated
03:21PM 14.1950 119.0103 331° Northwest  Level Estimated
03:22PM 14.3016 118.9480 330° Northwest  Level Estimated
03:23PM 14.4083 118.8857 330° Northwest  Level Estimated
03:24PM 14.5149 118.8233 330° Northwest  Level Estimated
03:25PM 14.6215 118.7608 330° Northwest  Level Estimated
03:26PM 14.7281 118.6983 330° Northwest  Level Estimated
03:27PM 14.8347 118.6357 330° Northwest  Level Estimated
03:28PM 14.9412 118.5731 330° Northwest  Level Estimated
03:29PM 15.0478 118.5104 330° Northwest  Level Estimated
03:30PM 15.1543 118.4476 330° Northwest  Level Estimated
03:31PM 15.2608 118.3848 330° Northwest  Level Estimated
03:32PM 15.3673 118.3219 330° Northwest  Level Estimated
03:33PM 15.4738 118.2589 330° Northwest  Level Estimated
03:34PM 15.5802 118.1959 330° Northwest  Level Estimated
03:35PM 15.6867 118.1328 330° Northwest  Level Estimated
03:36PM 15.7931 118.0696 330° Northwest  Level Estimated
03:37PM 15.8995 118.0064 330° Northwest  Level Estimated
03:38PM 16.0059 117.9431 330° Northwest  Level Estimated
03:39PM 16.1122 117.8798 330° Northwest  Level Estimated
03:40PM 16.2186 117.8163 330° Northwest  Level Estimated
03:41PM 16.3249 117.7528 330° Northwest  Level Estimated
03:42PM 16.4312 117.6893 330° Northwest  Level Estimated
03:43PM 16.5375 117.6256 330° Northwest  Level Estimated
03:44PM 16.6438 117.5620 330° Northwest  Level Estimated
03:45PM 16.7500 117.4982 330° Northwest  Level Estimated
03:46PM 16.8563 117.4343 330° Northwest  Level Estimated
03:47PM 16.9625 117.3704 330° Northwest  Level Estimated
03:48PM 17.0687 117.3064 330° Northwest  Level Estimated
03:49PM 17.1748 117.2424 330° Northwest  Level Estimated
03:50PM 17.2810 117.1782 330° Northwest  Level Estimated
03:51PM 17.3871 117.1140 330° Northwest  Level Estimated
03:52PM 17.4932 117.0497 330° Northwest  Level Estimated
03:53PM 17.5993 116.9854 330° Northwest  Level Estimated
03:54PM 17.7054 116.9209 330° Northwest  Level Estimated
03:55PM 17.8114 116.8564 330° Northwest  Level Estimated
03:56PM 17.9174 116.7918 330° Northwest  Level Estimated
03:57PM 18.0235 116.7272 330° Northwest  Level Estimated
03:58PM 18.1294 116.6624 330° Northwest  Level Estimated
03:59PM 18.2354 116.5976 330° Northwest  Level Estimated
04:00PM 18.3413 116.5327 330° Northwest  Level Estimated
04:01PM 18.4473 116.4677 330° Northwest  Level Estimated
04:02PM 18.5531 116.4027 330° Northwest  Level Estimated
04:03PM 18.6590 116.3375 330° Northwest  Level Estimated
04:04PM 18.7649 116.2723 330° Northwest  Level Estimated
04:05PM 18.8707 116.2070 330° Northwest  Level Estimated
04:06PM 18.9765 116.1416 330° Northwest  Level Estimated
04:07PM 19.0823 116.0761 330° Northwest  Level Estimated
04:08PM 19.1880 116.0106 330° Northwest  Level Estimated
04:09PM 19.2938 115.9449 330° Northwest  Level Estimated
04:10PM 19.3995 115.8792 330° Northwest  Level Estimated
04:11PM 19.5052 115.8134 330° Northwest  Level Estimated
04:12PM 19.6108 115.7475 330° Northwest  Level Estimated
04:13PM 19.7165 115.6815 330° Northwest  Level Estimated
04:14PM 19.8221 115.6155 330° Northwest  Level Estimated
04:15PM 19.9277 115.5493 330° Northwest  Level Estimated
04:16PM 20.0332 115.4831 329° Northwest  Level Estimated
04:17PM 20.1388 115.4167 329° Northwest  Level Estimated
04:18PM 20.2443 115.3503 329° Northwest  Level Estimated
04:19PM 20.3498 115.2838 329° Northwest  Level Estimated
04:20PM 20.4553 115.2172 329° Northwest  Level Estimated
04:21PM 20.5607 115.1505 329° Northwest  Level Estimated
04:22PM 20.6661 115.0837 329° Northwest  Level Estimated
04:23PM 20.7715 115.0169 329° Northwest  Level Estimated
04:24PM 20.8769 114.9499 329° Northwest  Level Estimated
04:25PM 20.9822 114.8828 329° Northwest  Level Estimated
04:26PM 21.0875 114.8157 329° Northwest  Level Estimated
04:27PM 21.1928 114.7484 329° Northwest  Level Estimated
04:27PM 22.3340 113.4160 329° Northwest 290 334 7,900  Level FlightAware
04:27PM 22.3690 113.4340 25° Northeast 290 334 7,500 -900 Descending FlightAware
04:28PM 21.2981 114.6810 329° Northwest  Level Estimated
04:28PM 22.3980 113.4480 24° Northeast 289 333 7,100  Level FlightAware
04:28PM 22.4360 113.4670 25° Northeast 284 327 6,500 -1,020 Descending FlightAware
04:29PM 22.4710 113.4850 25° Northeast 283 326 6,100 -1,020 Descending FlightAware
04:29PM 22.5020 113.5010 25° Northeast 284 327 5,600 -1,080 Descending FlightAware
04:30PM 22.5200 113.5090 22° Northeast 285 328 5,400 -900 Descending FlightAware
04:30PM 22.5500 113.5250 26° Northeast 284 327 5,000 -1,080 Descending FlightAware
04:30PM 22.5680 113.5340 25° Northeast 284 327 4,700 -1,080 Descending FlightAware
04:31PM 22.6040 113.5520 25° Northeast 283 326 4,200 -1,020 Descending FlightAware
04:31PM 22.6410 113.5700 24° Northeast 281 323 3,700 -1,020 Descending FlightAware
04:32PM 22.6690 113.5820 22° Northeast 280 322 3,300 -960 Descending FlightAware
04:32PM 22.7000 113.5950 21° North 268 308 2,900 -480 Descending FlightAware
04:33PM 22.7330 113.6090 21° North 238 274 2,900  Level FlightAware
04:33PM 22.7470 113.6150 22° Northeast 223 257 2,900 120 Level FlightAware
04:33PM 22.7650 113.6220 20° North 200 230 3,000  Climbing FlightAware
04:33PM 22.7740 113.6270 27° Northeast 200 230 2,900 -720 Descending FlightAware
04:34PM 22.7830 113.6390 51° Northeast 189 217 2,700 -900 Descending FlightAware
04:34PM 22.7920 113.6600 65° Northeast 188 216 2,300 -600 Descending FlightAware
04:34PM 22.7950 113.6720 75° East 181 208 2,300  Level FlightAware
04:35PM 22.7870 113.6930 112° Southeast 178 205 2,300  Level FlightAware
04:35PM 22.7820 113.7060 113° Southeast 177 204 2,300  Level FlightAware
04:35PM 22.7760 113.7170 121° Southeast 172 198 2,300  Level FlightAware
04:35PM 22.7650 113.7240 150° Southeast 152 175 2,300 -540 Level FlightAware
04:36PM 22.7470 113.7340 153° Southeast 145 167 1,900 -660 Descending FlightAware
04:36PM 22.7330 113.7420 152° Southeast 132 152 1,700 -600 Descending FlightAware
04:37PM 22.7180 113.7500 154° Southeast 135 155 1,400 -840 Descending FlightAware
04:37PM 22.7070 113.7560 153° Southeast 137 158 1,100 -720 Descending FlightAware
04:37PM 22.6940 113.7630 154° Southeast 139 160 900 -600 Descending FlightAware
04:38PM 22.6840 113.7680 155° Southeast 140 161 700 -780 Descending FlightAware
04:38PM 22.6700 113.7760 152° Southeast 141 162 400 -720 Descending FlightAware
04:39PM 22.6540 113.7850 153° Southeast 140 161 -840 Descending FlightAware